createdAt,value
2017-06-25T00:00:12.784Z,16.50
2017-06-25T00:02:41.127Z,16.50
2017-06-25T00:05:09.439Z,16.60
2017-06-25T00:07:38.147Z,16.50
2017-06-25T00:10:06.485Z,16.50
2017-06-25T00:12:34.866Z,16.60
2017-06-25T00:15:03.222Z,16.60
2017-06-25T00:17:31.546Z,16.60
2017-06-25T00:20:00.644Z,16.60
2017-06-25T00:22:29.382Z,16.60
2017-06-25T00:24:57.679Z,16.60
2017-06-25T00:27:27.522Z,16.50
2017-06-25T00:29:55.822Z,16.50
2017-06-25T00:32:24.168Z,16.50
2017-06-25T00:34:52.474Z,16.50
2017-06-25T00:37:20.870Z,16.60
2017-06-25T00:39:49.208Z,16.60
2017-06-25T00:42:17.515Z,16.60
2017-06-25T00:44:45.856Z,16.60
2017-06-25T00:47:14.183Z,16.70
2017-06-25T00:49:42.551Z,16.70
2017-06-25T00:52:10.879Z,16.60
2017-06-25T00:54:40.059Z,16.60
2017-06-25T00:57:08.375Z,16.60
2017-06-25T00:59:36.726Z,16.70
2017-06-25T01:02:05.806Z,16.60
2017-06-25T01:04:34.994Z,16.70
2017-06-25T01:07:03.361Z,16.70
2017-06-25T01:09:32.062Z,16.70
2017-06-25T01:12:00.402Z,16.70
2017-06-25T01:14:28.787Z,16.70
2017-06-25T01:16:57.111Z,16.70
2017-06-25T01:19:26.190Z,16.70
2017-06-25T01:21:54.566Z,16.60
2017-06-25T01:24:22.871Z,16.70
2017-06-25T01:26:51.216Z,16.70
2017-06-25T01:29:19.560Z,16.70
2017-06-25T01:31:47.896Z,16.70
2017-06-25T01:34:16.979Z,16.70
2017-06-25T01:36:46.104Z,16.80
2017-06-25T01:39:14.428Z,16.70
2017-06-25T01:41:42.735Z,16.80
2017-06-25T01:44:11.814Z,16.80
2017-06-25T01:46:40.147Z,16.80
2017-06-25T01:49:08.499Z,16.80
2017-06-25T01:51:36.836Z,16.80
2017-06-25T01:54:05.145Z,16.80
2017-06-25T01:56:34.206Z,16.80
2017-06-25T01:59:02.554Z,16.80
2017-06-25T02:01:30.870Z,16.80
2017-06-25T02:03:59.238Z,16.90
2017-06-25T02:06:27.555Z,16.90
2017-06-25T02:08:55.888Z,16.80
2017-06-25T02:11:24.194Z,16.80
2017-06-25T02:13:53.300Z,16.90
2017-06-25T02:16:21.606Z,16.90
2017-06-25T02:18:49.947Z,16.90
2017-06-25T02:21:19.105Z,16.90
2017-06-25T02:23:47.451Z,16.90
2017-06-25T02:26:15.779Z,17.00
2017-06-25T02:28:44.088Z,16.90
2017-06-25T02:31:13.659Z,16.90
2017-06-25T02:33:42.014Z,16.90
2017-06-25T02:36:10.314Z,16.90
2017-06-25T02:38:38.643Z,16.90
2017-06-25T02:41:07.010Z,16.90
2017-06-25T02:43:35.310Z,16.90
2017-06-25T02:46:03.683Z,16.90
2017-06-25T02:48:32.014Z,16.90
2017-06-25T02:51:00.728Z,16.90
2017-06-25T02:53:29.088Z,16.90
2017-06-25T02:55:57.427Z,16.90
2017-06-25T02:58:25.778Z,17.00
2017-06-25T03:00:54.082Z,16.90
2017-06-25T03:03:22.424Z,17.00
2017-06-25T03:05:50.746Z,17.00
2017-06-25T03:08:19.076Z,17.00
2017-06-25T03:10:47.383Z,17.00
2017-06-25T03:13:15.716Z,17.00
2017-06-25T03:15:44.024Z,17.00
2017-06-25T03:18:12.360Z,17.10
2017-06-25T03:20:40.682Z,17.00
2017-06-25T03:23:08.984Z,16.90
2017-06-25T03:25:38.078Z,16.90
2017-06-25T03:28:06.383Z,16.90
2017-06-25T03:30:34.723Z,16.90
2017-06-25T03:33:03.196Z,16.90
2017-06-25T03:35:31.511Z,17.00
2017-06-25T03:37:59.830Z,17.00
2017-06-25T03:40:28.219Z,17.00
2017-06-25T03:42:56.604Z,17.00
2017-06-25T03:45:24.888Z,17.00
2017-06-25T03:48:21.479Z,17.00
2017-06-25T03:50:50.580Z,16.90
2017-06-25T03:53:18.993Z,16.50
2017-06-25T03:55:47.287Z,16.40
2017-06-25T03:58:16.011Z,15.90
2017-06-25T04:00:44.310Z,15.80
2017-06-25T04:03:12.627Z,15.80
2017-06-25T04:05:41.087Z,15.80
2017-06-25T04:08:10.198Z,15.70
2017-06-25T04:10:39.266Z,15.50
2017-06-25T04:13:07.588Z,15.50
2017-06-25T04:15:35.991Z,15.50
2017-06-25T04:18:04.972Z,15.60
2017-06-25T04:20:33.413Z,15.60
2017-06-25T04:23:01.722Z,15.50
2017-06-25T04:25:30.035Z,15.60
2017-06-25T04:27:58.374Z,15.60
2017-06-25T04:30:26.715Z,15.70
2017-06-25T04:32:55.047Z,15.70
2017-06-25T04:35:23.381Z,15.70
2017-06-25T04:37:51.743Z,15.70
2017-06-25T04:40:20.058Z,15.70
2017-06-25T04:42:48.402Z,15.80
2017-06-25T04:45:16.714Z,15.80
2017-06-25T04:47:45.058Z,15.80
2017-06-25T04:50:13.366Z,15.70
2017-06-25T04:52:41.736Z,15.80
2017-06-25T04:55:10.802Z,15.80
2017-06-25T04:57:39.124Z,15.70
2017-06-25T05:00:07.860Z,15.80
2017-06-25T05:02:36.178Z,15.70
2017-06-25T05:05:04.503Z,15.80
2017-06-25T05:07:32.826Z,15.80
2017-06-25T05:10:01.567Z,15.90
2017-06-25T05:12:30.260Z,15.90
2017-06-25T05:14:58.591Z,15.90
2017-06-25T05:17:27.299Z,16.00
2017-06-25T05:19:55.591Z,15.90
2017-06-25T05:22:23.905Z,16.00
2017-06-25T05:24:52.975Z,16.10
2017-06-25T05:27:21.301Z,16.10
2017-06-25T05:29:49.724Z,16.10
2017-06-25T05:32:18.105Z,16.10
2017-06-25T05:34:46.406Z,16.20
2017-06-25T05:37:14.714Z,16.20
2017-06-25T05:39:43.067Z,16.20
2017-06-25T05:42:11.375Z,16.20
2017-06-25T05:44:39.697Z,16.30
2017-06-25T05:47:08.086Z,16.30
2017-06-25T05:49:37.169Z,16.40
2017-06-25T05:52:05.491Z,16.30
2017-06-25T05:54:33.933Z,16.30
2017-06-25T05:57:03.005Z,16.40
2017-06-25T05:59:31.352Z,16.50
2017-06-25T06:01:59.651Z,16.60
2017-06-25T06:04:27.991Z,16.60
2017-06-25T06:06:56.704Z,16.60
2017-06-25T06:09:25.016Z,16.60
2017-06-25T06:11:53.384Z,16.60
2017-06-25T06:14:21.699Z,16.60
2017-06-25T06:16:50.023Z,16.60
2017-06-25T06:19:18.492Z,16.70
2017-06-25T06:21:46.790Z,16.80
2017-06-25T06:24:15.110Z,16.80
2017-06-25T06:26:43.430Z,16.80
2017-06-25T06:29:11.816Z,16.90
2017-06-25T06:31:40.122Z,16.90
2017-06-25T06:34:08.451Z,16.90
2017-06-25T06:36:36.817Z,16.90
2017-06-25T06:39:05.144Z,16.90
2017-06-25T06:41:33.479Z,17.00
2017-06-25T06:44:01.791Z,17.00
2017-06-25T06:46:30.095Z,17.00
2017-06-25T06:48:58.485Z,17.10
2017-06-25T06:51:26.796Z,17.10
2017-06-25T06:53:55.139Z,17.10
2017-06-25T06:56:26.305Z,17.20
2017-06-25T06:58:54.630Z,17.30
2017-06-25T07:01:22.959Z,17.30
2017-06-25T07:03:51.371Z,17.40
2017-06-25T07:06:19.826Z,17.40
2017-06-25T07:08:48.218Z,17.30
2017-06-25T07:11:16.508Z,17.30
2017-06-25T07:13:44.854Z,17.30
2017-06-25T07:16:13.250Z,17.30
2017-06-25T07:18:41.549Z,17.40
2017-06-25T07:21:10.644Z,17.40
2017-06-25T07:23:39.739Z,17.50
2017-06-25T07:26:08.813Z,17.50
2017-06-25T07:28:37.141Z,17.50
2017-06-25T07:31:05.454Z,17.50
2017-06-25T07:33:33.791Z,17.60
2017-06-25T07:36:02.094Z,17.70
2017-06-25T07:38:30.391Z,17.70
2017-06-25T07:40:58.727Z,17.90
2017-06-25T07:43:27.029Z,18.00
2017-06-25T07:45:55.354Z,18.20
2017-06-25T07:48:24.046Z,18.60
2017-06-25T07:50:52.386Z,18.50
2017-06-25T07:53:20.681Z,18.80
2017-06-25T07:55:49.779Z,18.20
2017-06-25T07:58:18.234Z,18.10
2017-06-25T08:00:46.520Z,18.10
2017-06-25T08:03:14.840Z,18.20
2017-06-25T08:05:43.127Z,18.30
2017-06-25T08:08:11.458Z,18.30
2017-06-25T08:10:39.750Z,18.30
2017-06-25T08:13:08.076Z,18.00
2017-06-25T08:15:36.443Z,18.00
2017-06-25T08:18:05.449Z,17.70
2017-06-25T08:20:33.791Z,17.40
2017-06-25T08:23:02.496Z,17.30
2017-06-25T08:25:31.544Z,17.20
2017-06-25T08:27:59.904Z,17.10
2017-06-25T08:30:28.296Z,17.10
2017-06-25T08:32:57.537Z,16.90
2017-06-25T08:35:25.858Z,16.90
2017-06-25T08:37:54.183Z,16.90
2017-06-25T08:40:22.478Z,16.90
2017-06-25T08:42:50.823Z,16.90
2017-06-25T08:45:19.122Z,16.90
2017-06-25T08:47:47.535Z,16.90
2017-06-25T08:50:16.239Z,16.80
2017-06-25T08:52:44.562Z,16.70
2017-06-25T08:55:12.921Z,16.80
2017-06-25T08:57:41.268Z,16.80
2017-06-25T09:00:09.607Z,16.80
2017-06-25T09:02:37.981Z,16.60
2017-06-25T09:05:06.327Z,16.50
2017-06-25T09:07:34.735Z,16.10
2017-06-25T09:10:03.110Z,15.50
2017-06-25T09:12:31.407Z,15.40
2017-06-25T09:14:59.798Z,15.50
2017-06-25T09:17:28.122Z,15.50
2017-06-25T09:19:56.483Z,15.40
2017-06-25T09:22:25.607Z,15.60
2017-06-25T09:24:53.932Z,15.70
2017-06-25T09:27:22.407Z,15.70
2017-06-25T09:29:50.825Z,15.80
2017-06-25T09:32:19.296Z,15.90
2017-06-25T09:34:47.616Z,16.00
2017-06-25T09:37:15.972Z,16.20
2017-06-25T09:39:44.308Z,16.40
2017-06-25T09:42:13.484Z,16.50
2017-06-25T09:44:41.810Z,16.50
2017-06-25T09:47:10.249Z,16.60
2017-06-25T09:49:38.575Z,17.00
2017-06-25T09:52:06.996Z,17.00
2017-06-25T09:54:35.370Z,17.10
2017-06-25T09:57:04.455Z,17.20
2017-06-25T09:59:32.764Z,17.70
2017-06-25T10:02:01.882Z,18.20
2017-06-25T10:04:30.908Z,18.30
2017-06-25T10:06:59.277Z,18.00
2017-06-25T10:09:27.586Z,18.10
2017-06-25T10:11:55.962Z,18.10
2017-06-25T10:14:24.272Z,18.40
2017-06-25T10:16:53.370Z,17.80
2017-06-25T10:19:21.711Z,17.70
2017-06-25T10:21:50.042Z,17.70
2017-06-25T10:24:18.471Z,17.70
2017-06-25T10:26:46.763Z,17.90
2017-06-25T10:29:15.100Z,17.90
2017-06-25T10:31:44.212Z,18.40
2017-06-25T10:34:12.515Z,18.80
2017-06-25T10:36:41.616Z,19.00
2017-06-25T10:39:09.948Z,18.80
2017-06-25T10:41:38.236Z,18.70
2017-06-25T10:44:06.586Z,18.50
2017-06-25T10:46:34.907Z,18.60
2017-06-25T10:49:03.346Z,18.70
2017-06-25T10:51:31.658Z,18.80
2017-06-25T10:54:00.014Z,19.20
2017-06-25T10:56:34.079Z,19.20
2017-06-25T10:59:07.818Z,19.20
2017-06-25T11:01:41.723Z,19.10
2017-06-25T11:04:15.651Z,18.90
2017-06-25T11:06:49.379Z,18.70
2017-06-25T11:09:24.040Z,18.70
2017-06-25T11:11:52.511Z,18.90
2017-06-25T11:14:20.844Z,19.10
2017-06-25T11:16:49.576Z,19.60
2017-06-25T11:19:18.622Z,19.50
2017-06-25T11:21:47.265Z,19.60
2017-06-25T11:24:15.566Z,19.50
2017-06-25T11:26:43.862Z,19.70
2017-06-25T11:29:12.595Z,19.90
2017-06-25T11:31:40.946Z,20.20
2017-06-25T11:34:09.635Z,19.80
2017-06-25T11:36:38.402Z,19.40
2017-06-25T11:39:07.622Z,19.30
2017-06-25T11:41:36.746Z,19.10
2017-06-25T11:44:05.522Z,18.70
2017-06-25T11:46:34.614Z,18.50
2017-06-25T11:49:03.357Z,18.40
2017-06-25T11:51:32.047Z,18.30
2017-06-25T11:54:06.014Z,19.20
2017-06-25T11:56:34.666Z,19.20
2017-06-25T11:59:03.811Z,19.30
2017-06-25T12:01:32.136Z,19.50
2017-06-25T12:04:01.262Z,19.70
2017-06-25T12:06:30.391Z,19.70
2017-06-25T12:09:12.879Z,19.80
2017-06-25T12:11:41.223Z,19.60
2017-06-25T12:14:10.382Z,19.30
2017-06-25T12:16:38.667Z,19.10
2017-06-25T12:19:06.999Z,19.00
2017-06-25T12:21:36.093Z,18.90
2017-06-25T12:24:04.399Z,18.80
2017-06-25T12:26:33.500Z,18.90
2017-06-25T12:29:01.824Z,19.00
2017-06-25T12:31:30.522Z,19.00
2017-06-25T12:33:59.675Z,19.00
2017-06-25T12:36:28.366Z,19.00
2017-06-25T12:38:57.441Z,19.00
2017-06-25T12:41:25.753Z,18.70
2017-06-25T12:43:54.459Z,18.60
2017-06-25T12:46:22.878Z,18.40
2017-06-25T12:48:51.182Z,18.20
2017-06-25T12:51:19.870Z,18.10
2017-06-25T12:53:48.999Z,18.10
2017-06-25T12:56:17.699Z,17.90
2017-06-25T12:58:46.810Z,17.80
2017-06-25T13:01:15.531Z,17.70
2017-06-25T13:03:44.590Z,17.50
2017-06-25T13:06:13.771Z,17.40
2017-06-25T13:08:42.861Z,17.40
2017-06-25T13:11:11.160Z,17.40
2017-06-25T13:13:39.477Z,17.40
2017-06-25T13:16:08.543Z,17.30
2017-06-25T13:18:38.383Z,17.30
2017-06-25T13:21:07.461Z,17.40
2017-06-25T13:23:35.820Z,17.40
2017-06-25T13:26:04.567Z,17.40
2017-06-25T13:28:33.655Z,17.50
2017-06-25T13:31:01.988Z,17.50
2017-06-25T13:33:30.684Z,17.40
2017-06-25T13:35:59.414Z,17.20
2017-06-25T13:38:27.704Z,17.10
2017-06-25T13:40:56.463Z,17.10
2017-06-25T13:43:25.535Z,17.10
2017-06-25T13:45:54.839Z,17.00
2017-06-25T13:48:23.140Z,16.90
2017-06-25T13:50:51.437Z,16.80
2017-06-25T13:53:19.767Z,16.70
2017-06-25T13:55:48.834Z,16.50
2017-06-25T13:58:17.563Z,16.30
2017-06-25T14:00:46.311Z,16.30
2017-06-25T14:03:14.611Z,16.30
2017-06-25T14:05:43.703Z,16.20
2017-06-25T14:08:12.427Z,16.30
2017-06-25T14:10:40.767Z,16.40
2017-06-25T14:13:09.069Z,16.40
2017-06-25T14:15:38.155Z,16.60
2017-06-25T14:18:06.580Z,16.50
2017-06-25T14:20:35.671Z,16.60
2017-06-25T14:23:03.992Z,16.70
2017-06-25T14:25:33.066Z,16.70
2017-06-25T14:28:02.113Z,16.90
2017-06-25T14:30:30.470Z,16.90
2017-06-25T14:32:58.775Z,16.90
2017-06-25T14:35:27.059Z,16.80
2017-06-25T14:37:55.390Z,16.70
2017-06-25T14:40:24.450Z,16.70
2017-06-25T14:42:52.803Z,16.70
2017-06-25T14:45:21.844Z,16.60
2017-06-25T14:47:50.914Z,16.70
2017-06-25T14:50:19.238Z,16.70
2017-06-25T14:52:47.549Z,16.70
2017-06-25T14:55:15.874Z,16.60
2017-06-25T14:57:44.564Z,16.60
2017-06-25T15:00:12.895Z,16.70
2017-06-25T15:02:41.603Z,16.80
2017-06-25T15:05:10.031Z,16.60
2017-06-25T15:07:38.331Z,16.20
2017-06-25T15:10:07.395Z,16.20
2017-06-25T15:12:36.526Z,15.90
2017-06-25T15:15:04.827Z,15.70
2017-06-25T15:17:33.159Z,15.50
2017-06-25T15:20:01.488Z,15.60
2017-06-25T15:22:30.594Z,15.60
2017-06-25T15:24:58.879Z,15.50
2017-06-25T15:27:30.006Z,15.50
2017-06-25T15:29:58.310Z,15.50
2017-06-25T15:32:26.674Z,15.40
2017-06-25T15:34:55.047Z,15.40
2017-06-25T15:37:23.580Z,15.40
2017-06-25T15:39:51.868Z,15.50
2017-06-25T15:42:20.179Z,15.50
2017-06-25T15:44:49.262Z,15.40
2017-06-25T15:47:17.578Z,15.20
2017-06-25T15:49:45.884Z,15.20
2017-06-25T15:52:14.186Z,15.10
2017-06-25T15:54:43.351Z,15.00
2017-06-25T15:57:11.642Z,14.90
2017-06-25T15:59:40.719Z,14.90
2017-06-25T16:02:09.531Z,14.90
2017-06-25T16:04:38.623Z,14.80
2017-06-25T16:07:07.806Z,14.80
2017-06-25T16:09:36.494Z,14.80
2017-06-25T16:12:06.314Z,14.90
2017-06-25T16:14:34.835Z,15.10
2017-06-25T16:17:03.158Z,15.10
2017-06-25T16:19:31.458Z,15.10
2017-06-25T16:22:00.587Z,15.00
2017-06-25T16:24:28.889Z,15.00
2017-06-25T16:26:57.595Z,15.20
2017-06-25T16:29:26.010Z,15.30
2017-06-25T16:31:55.170Z,15.40
2017-06-25T16:34:23.467Z,15.40
2017-06-25T16:36:51.942Z,15.60
2017-06-25T16:39:20.640Z,15.70
2017-06-25T16:41:49.717Z,16.00
2017-06-25T16:44:18.815Z,16.10
2017-06-25T16:46:47.170Z,16.00
2017-06-25T16:49:16.223Z,16.10
2017-06-25T16:51:44.539Z,16.20
2017-06-25T16:54:12.839Z,16.20
2017-06-25T16:56:41.163Z,16.00
2017-06-25T16:59:09.654Z,16.00
2017-06-25T17:01:38.373Z,15.90
2017-06-25T17:04:06.682Z,15.80
2017-06-25T17:06:35.003Z,16.00
2017-06-25T17:09:03.714Z,16.10
2017-06-25T17:11:32.823Z,16.20
2017-06-25T17:14:01.122Z,16.20
2017-06-25T17:16:29.463Z,16.30
2017-06-25T17:18:57.759Z,16.20
2017-06-25T17:21:26.828Z,16.20
2017-06-25T17:23:55.156Z,16.20
2017-06-25T17:26:23.474Z,16.00
2017-06-25T17:28:51.795Z,16.00
2017-06-25T17:31:20.507Z,16.00
2017-06-25T17:33:48.823Z,15.90
2017-06-25T17:36:17.123Z,14.60
2017-06-25T17:38:45.947Z,15.90
2017-06-25T17:41:14.350Z,15.90
2017-06-25T17:43:42.728Z,15.80
2017-06-25T17:46:11.084Z,16.00
2017-06-25T17:48:39.464Z,16.00
2017-06-25T17:51:07.751Z,16.00
2017-06-25T17:53:36.072Z,15.90
2017-06-25T17:56:05.371Z,15.90
2017-06-25T17:58:33.664Z,16.00
2017-06-25T18:01:02.009Z,15.80
2017-06-25T18:03:30.306Z,15.80
2017-06-25T18:05:59.363Z,15.80
2017-06-25T18:08:28.089Z,15.80
2017-06-25T18:10:56.419Z,15.80
2017-06-25T18:13:25.962Z,15.70
2017-06-25T18:15:54.655Z,15.80
2017-06-25T18:18:22.954Z,15.70
2017-06-25T18:20:51.668Z,15.70
2017-06-25T18:23:19.972Z,15.70
2017-06-25T18:25:48.315Z,15.70
2017-06-25T18:28:16.672Z,15.70
2017-06-25T18:30:45.013Z,15.70
2017-06-25T18:33:14.090Z,15.70
2017-06-25T18:35:42.836Z,15.80
2017-06-25T18:38:11.178Z,15.70
2017-06-25T18:40:39.482Z,15.60
2017-06-25T18:43:07.817Z,15.60
2017-06-25T18:45:36.917Z,15.70
2017-06-25T18:48:06.012Z,15.60
2017-06-25T18:50:34.363Z,15.60
2017-06-25T18:53:03.108Z,15.60
2017-06-25T18:55:31.398Z,15.70
2017-06-25T18:57:59.695Z,15.60
2017-06-25T19:00:28.407Z,15.60
2017-06-25T19:02:57.509Z,15.70
2017-06-25T19:05:26.605Z,15.70
2017-06-25T19:07:55.691Z,15.70
2017-06-25T19:10:24.444Z,15.60
2017-06-25T19:12:52.838Z,15.50
2017-06-25T19:15:21.136Z,15.60
2017-06-25T19:17:50.226Z,15.60
2017-06-25T19:20:19.292Z,15.60
2017-06-25T19:22:47.595Z,15.50
2017-06-25T19:25:15.927Z,15.50
2017-06-25T19:27:44.251Z,15.50
2017-06-25T19:30:12.599Z,15.50
2017-06-25T19:32:41.652Z,15.50
2017-06-25T19:35:09.947Z,15.50
2017-06-25T19:37:38.323Z,15.50
2017-06-25T19:40:06.684Z,15.50
2017-06-25T19:42:35.102Z,15.50
2017-06-25T19:45:03.406Z,15.40
2017-06-25T19:47:32.469Z,15.50
2017-06-25T19:50:00.809Z,15.40
2017-06-25T19:52:29.235Z,15.50
2017-06-25T19:54:57.514Z,15.30
2017-06-25T19:57:25.878Z,15.40
2017-06-25T19:59:54.968Z,15.40
2017-06-25T20:02:23.709Z,15.30
2017-06-25T20:04:52.932Z,15.30
2017-06-25T20:07:21.236Z,15.40
2017-06-25T20:09:50.350Z,15.30
2017-06-25T20:12:18.662Z,15.30
2017-06-25T20:14:46.984Z,15.30
2017-06-25T20:17:15.729Z,15.40
2017-06-25T20:19:44.411Z,15.30
2017-06-25T20:22:12.756Z,15.30
2017-06-25T20:24:41.458Z,15.30
2017-06-25T20:27:10.571Z,15.30
2017-06-25T20:29:39.285Z,15.30
2017-06-25T20:32:07.583Z,15.20
2017-06-25T20:34:36.687Z,15.20
2017-06-25T20:37:04.989Z,15.10
2017-06-25T20:39:33.274Z,15.20
2017-06-25T20:42:01.608Z,14.60
2017-06-25T20:44:31.469Z,15.10
2017-06-25T20:46:59.792Z,15.00
2017-06-25T20:49:28.576Z,15.00
2017-06-25T20:51:57.703Z,15.10
2017-06-25T20:54:26.768Z,15.10
2017-06-25T20:56:55.101Z,15.00
2017-06-25T20:59:23.423Z,15.00
2017-06-25T21:01:52.826Z,15.10
2017-06-25T21:04:21.143Z,15.10
2017-06-25T21:06:49.443Z,15.00
2017-06-25T21:09:18.577Z,15.00
2017-06-25T21:11:47.620Z,15.00
2017-06-25T21:14:16.037Z,15.00
2017-06-25T21:16:44.333Z,15.00
2017-06-25T21:19:12.674Z,15.00
2017-06-25T21:21:41.003Z,15.00
2017-06-25T21:24:10.091Z,15.10
2017-06-25T21:26:38.833Z,15.10
2017-06-25T21:29:07.873Z,15.10
2017-06-25T21:31:36.638Z,15.00
2017-06-25T21:34:04.951Z,15.00
2017-06-25T21:36:34.062Z,14.90
2017-06-25T21:39:03.348Z,14.90
2017-06-25T21:41:31.659Z,14.80
2017-06-25T21:44:00.403Z,14.80
2017-06-25T21:46:28.720Z,14.90
2017-06-25T21:48:57.425Z,14.70
2017-06-25T21:51:25.764Z,14.80
2017-06-25T21:53:54.118Z,14.80
2017-06-25T21:56:22.419Z,14.80
2017-06-25T21:58:50.731Z,14.80
2017-06-25T22:01:19.442Z,14.80
2017-06-25T22:03:48.610Z,14.80
2017-06-25T22:06:16.916Z,14.70
2017-06-25T22:08:45.638Z,14.70
2017-06-25T22:11:13.949Z,14.70
2017-06-25T22:13:42.275Z,14.70
2017-06-25T22:16:10.586Z,14.70
2017-06-25T22:18:39.298Z,14.70
2017-06-25T22:21:14.392Z,14.70
2017-06-25T22:23:43.539Z,14.70
2017-06-25T22:26:12.656Z,14.80
2017-06-25T22:28:40.991Z,14.70
2017-06-25T22:31:09.294Z,14.70
2017-06-25T22:33:38.395Z,14.80
2017-06-25T22:36:06.706Z,14.70
2017-06-25T22:38:35.827Z,14.70
2017-06-25T22:41:04.134Z,14.70
2017-06-25T22:43:33.223Z,14.70
2017-06-25T22:46:01.631Z,14.60
2017-06-25T22:48:30.336Z,14.60
2017-06-25T22:50:58.643Z,14.60
2017-06-25T22:53:27.757Z,14.50
2017-06-25T22:55:56.848Z,14.50
2017-06-25T22:58:25.928Z,14.50
2017-06-25T23:00:54.253Z,14.50
2017-06-25T23:03:22.987Z,14.50
2017-06-25T23:05:51.319Z,14.40
2017-06-25T23:08:19.695Z,14.40
2017-06-25T23:10:47.997Z,14.40
2017-06-25T23:13:16.310Z,14.30
2017-06-25T23:15:44.675Z,14.40
2017-06-25T23:18:12.960Z,14.40
2017-06-25T23:20:41.340Z,14.30
2017-06-25T23:23:10.069Z,14.20
2017-06-25T23:25:38.493Z,14.20
2017-06-25T23:28:06.919Z,14.20
2017-06-25T23:30:35.647Z,14.00
2017-06-25T23:33:03.967Z,14.00
2017-06-25T23:35:33.039Z,13.90
2017-06-25T23:38:01.371Z,13.90
2017-06-25T23:40:29.660Z,13.80
2017-06-25T23:42:57.951Z,13.80
2017-06-25T23:45:26.278Z,13.80
2017-06-25T23:47:54.581Z,13.80
2017-06-25T23:50:22.919Z,13.80
2017-06-25T23:52:51.223Z,13.70
2017-06-25T23:55:19.574Z,13.70
2017-06-25T23:57:47.919Z,13.80
